sensor_id;sensor_type;location;lat;lon;timestamp;P1;durP1;ratioP1;P2;durP2;ratioP2
54899;SDS011;40801;41.924;25.562;2023-03-08T00:01:16;17.42;;;13.88;;
54899;SDS011;40801;41.924;25.562;2023-03-08T00:03:43;13.90;;;12.00;;
54899;SDS011;40801;41.924;25.562;2023-03-08T00:06:11;12.57;;;10.30;;
54899;SDS011;40801;41.924;25.562;2023-03-08T00:08:39;12.50;;;11.18;;
54899;SDS011;40801;41.924;25.562;2023-03-08T00:11:09;9.77;;;8.77;;
54899;SDS011;40801;41.924;25.562;2023-03-08T00:13:36;8.00;;;7.20;;
54899;SDS011;40801;41.924;25.562;2023-03-08T00:16:02;8.63;;;7.57;;
54899;SDS011;40801;41.924;25.562;2023-03-08T00:18:29;9.10;;;8.20;;
54899;SDS011;40801;41.924;25.562;2023-03-08T00:21:02;10.73;;;9.63;;
54899;SDS011;40801;41.924;25.562;2023-03-08T00:23:29;11.57;;;10.45;;
54899;SDS011;40801;41.924;25.562;2023-03-08T00:25:55;10.45;;;8.73;;
54899;SDS011;40801;41.924;25.562;2023-03-08T00:28:21;9.65;;;8.65;;
54899;SDS011;40801;41.924;25.562;2023-03-08T00:30:53;8.07;;;7.25;;
54899;SDS011;40801;41.924;25.562;2023-03-08T00:33:25;6.47;;;5.97;;
54899;SDS011;40801;41.924;25.562;2023-03-08T00:35:58;8.65;;;7.88;;
54899;SDS011;40801;41.924;25.562;2023-03-08T00:38:25;7.00;;;6.40;;
54899;SDS011;40801;41.924;25.562;2023-03-08T00:40:51;7.25;;;6.65;;
54899;SDS011;40801;41.924;25.562;2023-03-08T00:43:17;7.43;;;6.72;;
54899;SDS011;40801;41.924;25.562;2023-03-08T00:45:42;7.13;;;6.60;;
54899;SDS011;40801;41.924;25.562;2023-03-08T00:48:08;7.07;;;6.57;;
54899;SDS011;40801;41.924;25.562;2023-03-08T00:50:33;7.00;;;6.45;;
54899;SDS011;40801;41.924;25.562;2023-03-08T00:52:59;8.02;;;7.38;;
54899;SDS011;40801;41.924;25.562;2023-03-08T00:55:24;6.97;;;6.38;;
54899;SDS011;40801;41.924;25.562;2023-03-08T00:57:50;7.00;;;6.50;;
54899;SDS011;40801;41.924;25.562;2023-03-08T01:00:15;7.38;;;6.78;;
54899;SDS011;40801;41.924;25.562;2023-03-08T01:02:41;7.15;;;6.57;;
54899;SDS011;40801;41.924;25.562;2023-03-08T01:05:07;6.78;;;6.18;;
54899;SDS011;40801;41.924;25.562;2023-03-08T01:07:33;7.70;;;6.97;;
54899;SDS011;40801;41.924;25.562;2023-03-08T01:09:59;8.55;;;7.53;;
54899;SDS011;40801;41.924;25.562;2023-03-08T01:12:24;8.27;;;7.57;;
54899;SDS011;40801;41.924;25.562;2023-03-08T01:14:50;6.70;;;6.20;;
54899;SDS011;40801;41.924;25.562;2023-03-08T01:17:16;6.60;;;6.10;;
54899;SDS011;40801;41.924;25.562;2023-03-08T01:19:42;6.60;;;5.95;;
54899;SDS011;40801;41.924;25.562;2023-03-08T01:22:08;8.95;;;6.47;;
54899;SDS011;40801;41.924;25.562;2023-03-08T01:24:33;5.82;;;5.32;;
54899;SDS011;40801;41.924;25.562;2023-03-08T01:26:59;5.68;;;5.18;;
54899;SDS011;40801;41.924;25.562;2023-03-08T01:29:25;7.22;;;5.70;;
54899;SDS011;40801;41.924;25.562;2023-03-08T01:31:51;9.15;;;8.25;;
54899;SDS011;40801;41.924;25.562;2023-03-08T01:34:17;14.27;;;9.32;;
54899;SDS011;40801;41.924;25.562;2023-03-08T01:36:43;9.70;;;8.55;;
54899;SDS011;40801;41.924;25.562;2023-03-08T01:39:10;8.98;;;8.13;;
54899;SDS011;40801;41.924;25.562;2023-03-08T01:41:36;9.52;;;8.60;;
54899;SDS011;40801;41.924;25.562;2023-03-08T01:44:01;8.38;;;7.57;;
54899;SDS011;40801;41.924;25.562;2023-03-08T01:46:28;8.80;;;7.95;;
54899;SDS011;40801;41.924;25.562;2023-03-08T01:54:10;7.50;;;6.75;;
54899;SDS011;40801;41.924;25.562;2023-03-08T01:56:48;8.52;;;6.93;;
54899;SDS011;40801;41.924;25.562;2023-03-08T01:59:17;7.10;;;6.37;;
54899;SDS011;40801;41.924;25.562;2023-03-08T02:01:46;6.22;;;5.63;;
54899;SDS011;40801;41.924;25.562;2023-03-08T02:04:11;7.72;;;6.78;;
54899;SDS011;40801;41.924;25.562;2023-03-08T02:06:37;8.32;;;7.50;;
54899;SDS011;40801;41.924;25.562;2023-03-08T02:09:03;9.18;;;8.23;;
54899;SDS011;40801;41.924;25.562;2023-03-08T02:11:29;9.85;;;8.73;;
54899;SDS011;40801;41.924;25.562;2023-03-08T02:13:57;12.20;;;10.27;;
54899;SDS011;40801;41.924;25.562;2023-03-08T02:16:23;14.57;;;9.18;;
54899;SDS011;40801;41.924;25.562;2023-03-08T02:18:52;9.10;;;8.20;;
54899;SDS011;40801;41.924;25.562;2023-03-08T02:21:20;9.38;;;8.32;;
54899;SDS011;40801;41.924;25.562;2023-03-08T02:23:46;9.05;;;8.18;;
54899;SDS011;40801;41.924;25.562;2023-03-08T02:26:12;9.88;;;8.77;;
54899;SDS011;40801;41.924;25.562;2023-03-08T02:28:38;10.93;;;8.45;;
54899;SDS011;40801;41.924;25.562;2023-03-08T02:31:03;7.57;;;6.88;;
54899;SDS011;40801;41.924;25.562;2023-03-08T02:33:29;12.35;;;8.70;;
54899;SDS011;40801;41.924;25.562;2023-03-08T02:38:25;5.30;;;4.90;;
54899;SDS011;40801;41.924;25.562;2023-03-08T02:40:51;8.15;;;7.15;;
54899;SDS011;40801;41.924;25.562;2023-03-08T02:43:17;7.53;;;6.82;;
54899;SDS011;40801;41.924;25.562;2023-03-08T02:45:43;7.40;;;6.13;;
54899;SDS011;40801;41.924;25.562;2023-03-08T02:48:09;6.70;;;6.05;;
54899;SDS011;40801;41.924;25.562;2023-03-08T02:50:35;6.82;;;5.93;;
54899;SDS011;40801;41.924;25.562;2023-03-08T02:53:01;5.85;;;5.40;;
54899;SDS011;40801;41.924;25.562;2023-03-08T02:55:27;5.78;;;5.28;;
54899;SDS011;40801;41.924;25.562;2023-03-08T02:57:52;6.13;;;5.63;;
54899;SDS011;40801;41.924;25.562;2023-03-08T03:00:18;6.13;;;5.18;;
54899;SDS011;40801;41.924;25.562;2023-03-08T03:02:43;5.65;;;5.22;;
54899;SDS011;40801;41.924;25.562;2023-03-08T03:05:09;5.95;;;5.45;;
54899;SDS011;40801;41.924;25.562;2023-03-08T03:07:38;5.93;;;5.40;;
54899;SDS011;40801;41.924;25.562;2023-03-08T03:10:05;6.43;;;5.82;;
54899;SDS011;40801;41.924;25.562;2023-03-08T03:12:32;11.77;;;10.68;;
54899;SDS011;40801;41.924;25.562;2023-03-08T03:14:57;8.90;;;8.30;;
54899;SDS011;40801;41.924;25.562;2023-03-08T03:17:25;7.05;;;6.45;;
54899;SDS011;40801;41.924;25.562;2023-03-08T03:19:50;7.22;;;6.53;;
54899;SDS011;40801;41.924;25.562;2023-03-08T03:22:16;7.05;;;6.45;;
54899;SDS011;40801;41.924;25.562;2023-03-08T03:24:41;6.05;;;5.55;;
54899;SDS011;40801;41.924;25.562;2023-03-08T03:27:07;6.32;;;5.82;;
54899;SDS011;40801;41.924;25.562;2023-03-08T03:29:32;6.63;;;5.68;;
54899;SDS011;40801;41.924;25.562;2023-03-08T03:31:57;6.18;;;5.65;;
54899;SDS011;40801;41.924;25.562;2023-03-08T03:34:23;7.05;;;6.45;;
54899;SDS011;40801;41.924;25.562;2023-03-08T03:36:48;6.63;;;6.03;;
54899;SDS011;40801;41.924;25.562;2023-03-08T03:39:14;7.68;;;6.97;;
54899;SDS011;40801;41.924;25.562;2023-03-08T03:41:40;6.90;;;6.40;;
54899;SDS011;40801;41.924;25.562;2023-03-08T03:44:05;7.25;;;6.55;;
54899;SDS011;40801;41.924;25.562;2023-03-08T03:46:31;6.78;;;6.28;;
54899;SDS011;40801;41.924;25.562;2023-03-08T03:48:56;6.72;;;6.22;;
54899;SDS011;40801;41.924;25.562;2023-03-08T03:51:22;7.40;;;6.53;;
54899;SDS011;40801;41.924;25.562;2023-03-08T03:53:48;6.07;;;5.68;;
54899;SDS011;40801;41.924;25.562;2023-03-08T03:56:15;7.00;;;6.13;;
54899;SDS011;40801;41.924;25.562;2023-03-08T03:58:42;5.70;;;5.20;;
54899;SDS011;40801;41.924;25.562;2023-03-08T04:01:13;6.38;;;5.78;;
54899;SDS011;40801;41.924;25.562;2023-03-08T04:03:40;6.47;;;5.80;;
54899;SDS011;40801;41.924;25.562;2023-03-08T04:06:11;7.45;;;6.85;;
54899;SDS011;40801;41.924;25.562;2023-03-08T04:08:41;6.45;;;5.85;;
54899;SDS011;40801;41.924;25.562;2023-03-08T04:11:08;7.25;;;6.65;;
54899;SDS011;40801;41.924;25.562;2023-03-08T04:13:38;6.78;;;6.18;;
54899;SDS011;40801;41.924;25.562;2023-03-08T04:16:23;6.22;;;5.80;;
54899;SDS011;40801;41.924;25.562;2023-03-08T04:18:56;7.40;;;6.80;;
54899;SDS011;40801;41.924;25.562;2023-03-08T04:21:24;6.93;;;6.15;;
54899;SDS011;40801;41.924;25.562;2023-03-08T04:23:50;7.47;;;6.70;;
54899;SDS011;40801;41.924;25.562;2023-03-08T04:26:16;8.10;;;7.30;;
54899;SDS011;40801;41.924;25.562;2023-03-08T04:28:41;9.50;;;8.65;;
54899;SDS011;40801;41.924;25.562;2023-03-08T04:31:18;9.15;;;8.13;;
54899;SDS011;40801;41.924;25.562;2023-03-08T04:33:43;10.82;;;9.85;;
54899;SDS011;40801;41.924;25.562;2023-03-08T04:36:09;10.60;;;9.60;;
54899;SDS011;40801;41.924;25.562;2023-03-08T04:38:35;11.13;;;10.02;;
54899;SDS011;40801;41.924;25.562;2023-03-08T04:41:01;12.35;;;10.23;;
54899;SDS011;40801;41.924;25.562;2023-03-08T04:43:34;12.25;;;11.05;;
54899;SDS011;40801;41.924;25.562;2023-03-08T04:46:00;11.05;;;9.95;;
54899;SDS011;40801;41.924;25.562;2023-03-08T04:48:26;10.95;;;9.50;;
54899;SDS011;40801;41.924;25.562;2023-03-08T04:50:56;12.32;;;11.23;;
54899;SDS011;40801;41.924;25.562;2023-03-08T04:53:23;11.50;;;10.30;;
54899;SDS011;40801;41.924;25.562;2023-03-08T04:55:49;10.73;;;9.60;;
54899;SDS011;40801;41.924;25.562;2023-03-08T04:58:16;10.20;;;9.20;;
54899;SDS011;40801;41.924;25.562;2023-03-08T05:00:42;11.88;;;10.63;;
54899;SDS011;40801;41.924;25.562;2023-03-08T05:03:08;11.10;;;10.00;;
54899;SDS011;40801;41.924;25.562;2023-03-08T05:05:34;12.85;;;11.70;;
54899;SDS011;40801;41.924;25.562;2023-03-08T05:07:59;12.07;;;10.93;;
54899;SDS011;40801;41.924;25.562;2023-03-08T05:10:28;13.80;;;12.10;;
54899;SDS011;40801;41.924;25.562;2023-03-08T05:12:54;13.07;;;11.80;;
54899;SDS011;40801;41.924;25.562;2023-03-08T05:15:19;10.25;;;8.93;;
54899;SDS011;40801;41.924;25.562;2023-03-08T05:17:47;8.75;;;7.75;;
54899;SDS011;40801;41.924;25.562;2023-03-08T05:20:13;8.63;;;7.85;;
54899;SDS011;40801;41.924;25.562;2023-03-08T05:22:38;11.68;;;8.25;;
54899;SDS011;40801;41.924;25.562;2023-03-08T05:25:04;8.48;;;7.68;;
54899;SDS011;40801;41.924;25.562;2023-03-08T05:27:33;17.70;;;15.43;;
54899;SDS011;40801;41.924;25.562;2023-03-08T05:29:59;13.65;;;11.75;;
54899;SDS011;40801;41.924;25.562;2023-03-08T05:32:24;11.07;;;9.80;;
54899;SDS011;40801;41.924;25.562;2023-03-08T05:34:53;16.75;;;11.45;;
54899;SDS011;40801;41.924;25.562;2023-03-08T05:37:18;12.07;;;10.90;;
54899;SDS011;40801;41.924;25.562;2023-03-08T05:39:44;12.52;;;11.38;;
54899;SDS011;40801;41.924;25.562;2023-03-08T05:42:11;18.73;;;14.82;;
54899;SDS011;40801;41.924;25.562;2023-03-08T05:44:36;27.50;;;21.63;;
54899;SDS011;40801;41.924;25.562;2023-03-08T05:47:02;26.50;;;20.77;;
54899;SDS011;40801;41.924;25.562;2023-03-08T05:49:28;19.65;;;17.15;;
54899;SDS011;40801;41.924;25.562;2023-03-08T05:51:53;19.20;;;15.52;;
54899;SDS011;40801;41.924;25.562;2023-03-08T05:54:19;11.75;;;10.00;;
54899;SDS011;40801;41.924;25.562;2023-03-08T05:56:44;9.50;;;8.60;;
54899;SDS011;40801;41.924;25.562;2023-03-08T05:59:10;10.05;;;9.18;;
54899;SDS011;40801;41.924;25.562;2023-03-08T06:01:35;9.30;;;8.50;;
54899;SDS011;40801;41.924;25.562;2023-03-08T06:04:01;10.18;;;8.95;;
54899;SDS011;40801;41.924;25.562;2023-03-08T06:06:26;9.63;;;8.73;;
54899;SDS011;40801;41.924;25.562;2023-03-08T06:08:52;10.25;;;9.00;;
54899;SDS011;40801;41.924;25.562;2023-03-08T06:11:18;8.63;;;7.85;;
54899;SDS011;40801;41.924;25.562;2023-03-08T06:13:43;11.60;;;9.90;;
54899;SDS011;40801;41.924;25.562;2023-03-08T06:16:09;10.80;;;9.80;;
54899;SDS011;40801;41.924;25.562;2023-03-08T06:18:35;10.90;;;9.60;;
54899;SDS011;40801;41.924;25.562;2023-03-08T06:21:03;11.25;;;8.95;;
54899;SDS011;40801;41.924;25.562;2023-03-08T06:23:30;13.65;;;10.45;;
54899;SDS011;40801;41.924;25.562;2023-03-08T06:25:57;11.95;;;10.85;;
54899;SDS011;40801;41.924;25.562;2023-03-08T06:28:23;10.68;;;9.75;;
54899;SDS011;40801;41.924;25.562;2023-03-08T06:30:49;12.63;;;11.25;;
54899;SDS011;40801;41.924;25.562;2023-03-08T06:33:19;15.10;;;13.70;;
54899;SDS011;40801;41.924;25.562;2023-03-08T06:38:30;16.20;;;13.55;;
54899;SDS011;40801;41.924;25.562;2023-03-08T06:40:57;15.07;;;13.38;;
54899;SDS011;40801;41.924;25.562;2023-03-08T06:43:22;14.90;;;13.60;;
54899;SDS011;40801;41.924;25.562;2023-03-08T06:45:48;14.48;;;13.07;;
54899;SDS011;40801;41.924;25.562;2023-03-08T06:48:14;15.48;;;13.93;;
54899;SDS011;40801;41.924;25.562;2023-03-08T06:50:39;9.68;;;8.98;;
54899;SDS011;40801;41.924;25.562;2023-03-08T06:53:05;11.52;;;10.52;;
54899;SDS011;40801;41.924;25.562;2023-03-08T06:55:31;13.77;;;12.27;;
54899;SDS011;40801;41.924;25.562;2023-03-08T06:57:58;15.52;;;13.50;;
54899;SDS011;40801;41.924;25.562;2023-03-08T07:00:23;13.57;;;12.25;;
54899;SDS011;40801;41.924;25.562;2023-03-08T07:02:49;14.35;;;12.85;;
54899;SDS011;40801;41.924;25.562;2023-03-08T07:05:14;14.82;;;13.27;;
54899;SDS011;40801;41.924;25.562;2023-03-08T07:07:40;13.65;;;12.43;;
54899;SDS011;40801;41.924;25.562;2023-03-08T07:10:07;11.48;;;10.57;;
54899;SDS011;40801;41.924;25.562;2023-03-08T07:12:35;15.30;;;12.23;;
54899;SDS011;40801;41.924;25.562;2023-03-08T07:15:04;14.93;;;13.38;;
54899;SDS011;40801;41.924;25.562;2023-03-08T07:17:33;17.40;;;12.10;;
54899;SDS011;40801;41.924;25.562;2023-03-08T07:20:00;12.25;;;10.90;;
54899;SDS011;40801;41.924;25.562;2023-03-08T07:22:26;16.23;;;10.82;;
54899;SDS011;40801;41.924;25.562;2023-03-08T07:24:51;28.50;;;20.40;;
54899;SDS011;40801;41.924;25.562;2023-03-08T07:27:16;19.73;;;15.30;;
54899;SDS011;40801;41.924;25.562;2023-03-08T07:29:42;22.25;;;15.55;;
54899;SDS011;40801;41.924;25.562;2023-03-08T07:32:07;25.77;;;22.23;;
54899;SDS011;40801;41.924;25.562;2023-03-08T07:34:33;16.40;;;13.80;;
54899;SDS011;40801;41.924;25.562;2023-03-08T07:36:58;17.70;;;12.95;;
54899;SDS011;40801;41.924;25.562;2023-03-08T07:39:23;9.77;;;8.90;;
54899;SDS011;40801;41.924;25.562;2023-03-08T07:41:49;11.23;;;9.85;;
54899;SDS011;40801;41.924;25.562;2023-03-08T07:44:14;14.77;;;10.73;;
54899;SDS011;40801;41.924;25.562;2023-03-08T07:46:40;9.65;;;8.75;;
54899;SDS011;40801;41.924;25.562;2023-03-08T07:49:05;6.78;;;6.18;;
54899;SDS011;40801;41.924;25.562;2023-03-08T07:51:35;6.00;;;5.50;;
54899;SDS011;40801;41.924;25.562;2023-03-08T07:54:01;5.75;;;5.32;;
54899;SDS011;40801;41.924;25.562;2023-03-08T07:56:26;6.25;;;5.65;;
54899;SDS011;40801;41.924;25.562;2023-03-08T07:58:54;7.10;;;6.50;;
54899;SDS011;40801;41.924;25.562;2023-03-08T08:01:21;6.72;;;6.22;;
54899;SDS011;40801;41.924;25.562;2023-03-08T08:03:47;6.82;;;6.10;;
54899;SDS011;40801;41.924;25.562;2023-03-08T08:06:12;7.63;;;6.82;;
54899;SDS011;40801;41.924;25.562;2023-03-08T08:08:38;7.07;;;6.47;;
54899;SDS011;40801;41.924;25.562;2023-03-08T08:11:10;7.50;;;6.90;;
54899;SDS011;40801;41.924;25.562;2023-03-08T08:13:37;7.78;;;6.93;;
54899;SDS011;40801;41.924;25.562;2023-03-08T08:16:02;7.40;;;6.72;;
54899;SDS011;40801;41.924;25.562;2023-03-08T08:18:28;7.43;;;6.82;;
54899;SDS011;40801;41.924;25.562;2023-03-08T08:21:04;29.33;;;26.95;;
54899;SDS011;40801;41.924;25.562;2023-03-08T08:23:31;7.40;;;6.50;;
54899;SDS011;40801;41.924;25.562;2023-03-08T08:25:57;7.20;;;6.50;;
54899;SDS011;40801;41.924;25.562;2023-03-08T08:28:23;9.35;;;8.35;;
54899;SDS011;40801;41.924;25.562;2023-03-08T08:30:57;10.43;;;8.50;;
54899;SDS011;40801;41.924;25.562;2023-03-08T08:33:26;13.40;;;12.20;;
54899;SDS011;40801;41.924;25.562;2023-03-08T08:35:52;7.95;;;7.15;;
54899;SDS011;40801;41.924;25.562;2023-03-08T08:38:18;7.35;;;6.72;;
54899;SDS011;40801;41.924;25.562;2023-03-08T08:40:43;6.45;;;5.80;;
54899;SDS011;40801;41.924;25.562;2023-03-08T08:43:09;6.90;;;6.25;;
54899;SDS011;40801;41.924;25.562;2023-03-08T08:45:34;7.85;;;6.40;;
54899;SDS011;40801;41.924;25.562;2023-03-08T08:47:59;6.47;;;5.88;;
54899;SDS011;40801;41.924;25.562;2023-03-08T08:50:25;7.30;;;6.70;;
54899;SDS011;40801;41.924;25.562;2023-03-08T08:52:50;7.25;;;6.60;;
54899;SDS011;40801;41.924;25.562;2023-03-08T08:55:16;8.30;;;6.68;;
54899;SDS011;40801;41.924;25.562;2023-03-08T08:57:41;6.25;;;5.75;;
54899;SDS011;40801;41.924;25.562;2023-03-08T09:00:07;7.07;;;5.47;;
54899;SDS011;40801;41.924;25.562;2023-03-08T09:02:33;7.35;;;6.65;;
54899;SDS011;40801;41.924;25.562;2023-03-08T09:05:00;7.35;;;5.95;;
54899;SDS011;40801;41.924;25.562;2023-03-08T09:07:25;6.50;;;5.63;;
54899;SDS011;40801;41.924;25.562;2023-03-08T09:09:52;8.50;;;7.75;;
54899;SDS011;40801;41.924;25.562;2023-03-08T09:12:18;7.10;;;6.28;;
54899;SDS011;40801;41.924;25.562;2023-03-08T09:14:45;7.32;;;6.55;;
54899;SDS011;40801;41.924;25.562;2023-03-08T09:17:11;7.15;;;5.65;;
54899;SDS011;40801;41.924;25.562;2023-03-08T09:19:36;9.48;;;8.70;;
54899;SDS011;40801;41.924;25.562;2023-03-08T09:22:02;6.97;;;6.43;;
54899;SDS011;40801;41.924;25.562;2023-03-08T09:24:27;6.80;;;6.30;;
54899;SDS011;40801;41.924;25.562;2023-03-08T09:26:53;8.13;;;7.50;;
54899;SDS011;40801;41.924;25.562;2023-03-08T09:29:18;12.85;;;9.82;;
54899;SDS011;40801;41.924;25.562;2023-03-08T09:31:43;5.88;;;5.30;;
54899;SDS011;40801;41.924;25.562;2023-03-08T09:34:10;5.97;;;5.32;;
54899;SDS011;40801;41.924;25.562;2023-03-08T09:36:38;5.22;;;4.82;;
54899;SDS011;40801;41.924;25.562;2023-03-08T09:39:05;5.40;;;4.90;;
54899;SDS011;40801;41.924;25.562;2023-03-08T09:41:45;5.65;;;5.25;;
54899;SDS011;40801;41.924;25.562;2023-03-08T09:46:57;5.38;;;4.72;;
54899;SDS011;40801;41.924;25.562;2023-03-08T09:49:30;4.03;;;3.72;;
54899;SDS011;40801;41.924;25.562;2023-03-08T09:52:03;4.22;;;3.83;;
54899;SDS011;40801;41.924;25.562;2023-03-08T09:54:35;6.10;;;4.93;;
54899;SDS011;40801;41.924;25.562;2023-03-08T09:57:04;4.85;;;4.45;;
54899;SDS011;40801;41.924;25.562;2023-03-08T09:59:40;6.13;;;5.60;;
54899;SDS011;40801;41.924;25.562;2023-03-08T10:05:12;4.97;;;4.55;;
54899;SDS011;40801;41.924;25.562;2023-03-08T10:07:48;15.10;;;13.63;;
54899;SDS011;40801;41.924;25.562;2023-03-08T10:10:47;8.13;;;7.05;;
54899;SDS011;40801;41.924;25.562;2023-03-08T10:13:31;5.00;;;4.47;;
54899;SDS011;40801;41.924;25.562;2023-03-08T10:16:13;4.25;;;3.83;;
54899;SDS011;40801;41.924;25.562;2023-03-08T10:21:24;4.93;;;4.53;;
54899;SDS011;40801;41.924;25.562;2023-03-08T10:23:57;4.20;;;3.90;;
54899;SDS011;40801;41.924;25.562;2023-03-08T10:26:28;4.65;;;4.25;;
54899;SDS011;40801;41.924;25.562;2023-03-08T10:28:54;4.60;;;3.50;;
54899;SDS011;40801;41.924;25.562;2023-03-08T10:31:24;3.70;;;3.20;;
54899;SDS011;40801;41.924;25.562;2023-03-08T10:34:37;4.13;;;3.80;;
54899;SDS011;40801;41.924;25.562;2023-03-08T10:36:47;4.55;;;4.22;;
54899;SDS011;40801;41.924;25.562;2023-03-08T10:39:13;4.05;;;3.75;;
54899;SDS011;40801;41.924;25.562;2023-03-08T10:41:47;5.15;;;3.72;;
54899;SDS011;40801;41.924;25.562;2023-03-08T10:44:38;4.30;;;3.92;;
54899;SDS011;40801;41.924;25.562;2023-03-08T10:47:19;5.97;;;5.47;;
54899;SDS011;40801;41.924;25.562;2023-03-08T10:52:30;3.20;;;2.95;;
54899;SDS011;40801;41.924;25.562;2023-03-08T10:54:59;3.38;;;3.08;;
54899;SDS011;40801;41.924;25.562;2023-03-08T10:57:29;3.38;;;3.08;;
54899;SDS011;40801;41.924;25.562;2023-03-08T10:59:56;3.38;;;2.92;;
54899;SDS011;40801;41.924;25.562;2023-03-08T11:02:31;3.88;;;3.58;;
54899;SDS011;40801;41.924;25.562;2023-03-08T11:04:57;4.25;;;3.88;;
54899;SDS011;40801;41.924;25.562;2023-03-08T11:07:24;3.83;;;3.35;;
54899;SDS011;40801;41.924;25.562;2023-03-08T11:12:36;5.18;;;3.47;;
54899;SDS011;40801;41.924;25.562;2023-03-08T11:15:11;3.88;;;3.58;;
54899;SDS011;40801;41.924;25.562;2023-03-08T11:17:37;3.65;;;2.40;;
54899;SDS011;40801;41.924;25.562;2023-03-08T11:23:20;2.88;;;2.40;;
54899;SDS011;40801;41.924;25.562;2023-03-08T11:36:50;3.30;;;3.00;;
54899;SDS011;40801;41.924;25.562;2023-03-08T11:39:39;2.33;;;2.20;;
54899;SDS011;40801;41.924;25.562;2023-03-08T11:44:48;3.13;;;2.83;;
54899;SDS011;40801;41.924;25.562;2023-03-08T11:47:43;3.35;;;3.05;;
54899;SDS011;40801;41.924;25.562;2023-03-08T11:50:24;3.88;;;3.03;;
54899;SDS011;40801;41.924;25.562;2023-03-08T11:58:22;4.05;;;2.92;;
54899;SDS011;40801;41.924;25.562;2023-03-08T12:00:53;4.35;;;2.65;;
54899;SDS011;40801;41.924;25.562;2023-03-08T12:03:25;2.47;;;2.28;;
54899;SDS011;40801;41.924;25.562;2023-03-08T12:12:13;2.95;;;2.75;;
54899;SDS011;40801;41.924;25.562;2023-03-08T12:14:54;2.80;;;2.60;;
54899;SDS011;40801;41.924;25.562;2023-03-08T12:17:34;3.95;;;3.17;;
54899;SDS011;40801;41.924;25.562;2023-03-08T12:20:04;3.35;;;3.10;;
54899;SDS011;40801;41.924;25.562;2023-03-08T12:25:46;2.75;;;2.55;;
54899;SDS011;40801;41.924;25.562;2023-03-08T12:33:24;2.80;;;2.60;;
54899;SDS011;40801;41.924;25.562;2023-03-08T12:35:57;6.50;;;5.93;;
54899;SDS011;40801;41.924;25.562;2023-03-08T12:38:27;4.70;;;4.32;;
54899;SDS011;40801;41.924;25.562;2023-03-08T12:40:53;3.35;;;3.05;;
54899;SDS011;40801;41.924;25.562;2023-03-08T12:45:45;3.30;;;3.00;;
54899;SDS011;40801;41.924;25.562;2023-03-08T12:56:02;3.50;;;3.20;;
54899;SDS011;40801;41.924;25.562;2023-03-08T13:01:44;3.90;;;3.50;;
54899;SDS011;40801;41.924;25.562;2023-03-08T13:04:34;7.03;;;5.15;;
54899;SDS011;40801;41.924;25.562;2023-03-08T13:07:08;3.67;;;3.13;;
54899;SDS011;40801;41.924;25.562;2023-03-08T13:15:30;3.80;;;3.30;;
54899;SDS011;40801;41.924;25.562;2023-03-08T13:25:51;3.45;;;3.10;;
54899;SDS011;40801;41.924;25.562;2023-03-08T13:28:22;4.47;;;4.07;;
54899;SDS011;40801;41.924;25.562;2023-03-08T13:30:50;6.90;;;4.88;;
54899;SDS011;40801;41.924;25.562;2023-03-08T13:33:28;5.13;;;4.47;;
54899;SDS011;40801;41.924;25.562;2023-03-08T13:35:58;5.00;;;4.25;;
54899;SDS011;40801;41.924;25.562;2023-03-08T13:38:29;4.10;;;3.22;;
54899;SDS011;40801;41.924;25.562;2023-03-08T13:40:57;3.97;;;3.63;;
54899;SDS011;40801;41.924;25.562;2023-03-08T13:43:30;5.07;;;3.78;;
54899;SDS011;40801;41.924;25.562;2023-03-08T13:46:01;9.38;;;7.30;;
54899;SDS011;40801;41.924;25.562;2023-03-08T13:48:29;5.78;;;5.28;;
54899;SDS011;40801;41.924;25.562;2023-03-08T13:50:57;8.50;;;5.55;;
54899;SDS011;40801;41.924;25.562;2023-03-08T13:53:24;5.72;;;5.10;;
54899;SDS011;40801;41.924;25.562;2023-03-08T13:55:53;2.80;;;2.70;;
54899;SDS011;40801;41.924;25.562;2023-03-08T13:58:44;4.28;;;3.75;;
54899;SDS011;40801;41.924;25.562;2023-03-08T14:01:18;5.82;;;5.20;;
54899;SDS011;40801;41.924;25.562;2023-03-08T14:03:48;5.03;;;4.53;;
54899;SDS011;40801;41.924;25.562;2023-03-08T14:06:22;5.07;;;4.68;;
54899;SDS011;40801;41.924;25.562;2023-03-08T14:08:49;5.47;;;5.05;;
54899;SDS011;40801;41.924;25.562;2023-03-08T14:11:17;4.05;;;3.72;;
54899;SDS011;40801;41.924;25.562;2023-03-08T14:13:48;5.10;;;4.68;;
54899;SDS011;40801;41.924;25.562;2023-03-08T14:16:28;5.30;;;4.95;;
54899;SDS011;40801;41.924;25.562;2023-03-08T14:18:58;6.20;;;5.70;;
54899;SDS011;40801;41.924;25.562;2023-03-08T14:21:33;3.63;;;3.08;;
54899;SDS011;40801;41.924;25.562;2023-03-08T14:24:00;7.03;;;6.43;;
54899;SDS011;40801;41.924;25.562;2023-03-08T14:26:31;4.40;;;3.67;;
54899;SDS011;40801;41.924;25.562;2023-03-08T14:34:25;6.35;;;5.65;;
54899;SDS011;40801;41.924;25.562;2023-03-08T14:36:56;11.60;;;6.05;;
54899;SDS011;40801;41.924;25.562;2023-03-08T14:39:24;4.57;;;4.10;;
54899;SDS011;40801;41.924;25.562;2023-03-08T14:41:51;7.93;;;7.33;;
54899;SDS011;40801;41.924;25.562;2023-03-08T14:44:20;45.67;;;42.28;;
54899;SDS011;40801;41.924;25.562;2023-03-08T14:46:48;28.42;;;25.83;;
54899;SDS011;40801;41.924;25.562;2023-03-08T14:49:22;19.00;;;17.40;;
54899;SDS011;40801;41.924;25.562;2023-03-08T14:51:53;8.80;;;8.13;;
54899;SDS011;40801;41.924;25.562;2023-03-08T14:54:20;5.68;;;5.07;;
54899;SDS011;40801;41.924;25.562;2023-03-08T14:56:57;5.35;;;4.95;;
54899;SDS011;40801;41.924;25.562;2023-03-08T14:59:25;8.52;;;7.82;;
54899;SDS011;40801;41.924;25.562;2023-03-08T15:01:50;5.60;;;5.20;;
54899;SDS011;40801;41.924;25.562;2023-03-08T15:04:20;6.03;;;5.53;;
54899;SDS011;40801;41.924;25.562;2023-03-08T15:06:47;5.70;;;4.25;;
54899;SDS011;40801;41.924;25.562;2023-03-08T15:09:15;7.03;;;6.50;;
54899;SDS011;40801;41.924;25.562;2023-03-08T15:11:43;8.27;;;4.97;;
54899;SDS011;40801;41.924;25.562;2023-03-08T15:14:10;9.23;;;8.30;;
54899;SDS011;40801;41.924;25.562;2023-03-08T15:16:36;3.13;;;2.92;;
54899;SDS011;40801;41.924;25.562;2023-03-08T15:19:02;3.08;;;2.85;;
54899;SDS011;40801;41.924;25.562;2023-03-08T15:21:27;9.05;;;6.07;;
54899;SDS011;40801;41.924;25.562;2023-03-08T15:23:53;3.47;;;3.17;;
54899;SDS011;40801;41.924;25.562;2023-03-08T15:26:27;5.57;;;4.35;;
54899;SDS011;40801;41.924;25.562;2023-03-08T15:28:55;41.08;;;36.78;;
54899;SDS011;40801;41.924;25.562;2023-03-08T15:31:21;6.15;;;5.63;;
54899;SDS011;40801;41.924;25.562;2023-03-08T15:33:47;6.85;;;6.10;;
54899;SDS011;40801;41.924;25.562;2023-03-08T15:36:14;7.43;;;6.30;;
54899;SDS011;40801;41.924;25.562;2023-03-08T15:38:41;3.75;;;3.45;;
54899;SDS011;40801;41.924;25.562;2023-03-08T15:41:10;10.88;;;9.85;;
54899;SDS011;40801;41.924;25.562;2023-03-08T15:43:39;5.93;;;4.88;;
54899;SDS011;40801;41.924;25.562;2023-03-08T15:46:05;4.82;;;4.50;;
54899;SDS011;40801;41.924;25.562;2023-03-08T15:48:30;5.72;;;5.22;;
54899;SDS011;40801;41.924;25.562;2023-03-08T15:50:56;5.55;;;5.00;;
54899;SDS011;40801;41.924;25.562;2023-03-08T15:53:22;5.30;;;4.90;;
54899;SDS011;40801;41.924;25.562;2023-03-08T15:55:48;6.63;;;5.88;;
54899;SDS011;40801;41.924;25.562;2023-03-08T15:58:14;7.43;;;6.43;;
54899;SDS011;40801;41.924;25.562;2023-03-08T16:00:39;8.75;;;7.85;;
54899;SDS011;40801;41.924;25.562;2023-03-08T16:03:04;18.08;;;15.20;;
54899;SDS011;40801;41.924;25.562;2023-03-08T16:05:30;22.65;;;18.50;;
54899;SDS011;40801;41.924;25.562;2023-03-08T16:07:57;17.75;;;15.95;;